Big Powderhorn Mountain, Michigan
Current Conditions -  °F | °C
As of 10:15 AM on Wednesday 28 Jan 2015 (Local Time) from KIWD Reporting Station
Few Clouds Few Clouds  
Wind Chill: 19°   Ceiling: Unl
Heat Index: 27°   Visibility: 6mi
Dew Point: 23°   Wind: 7mph
Humidity: 86%   Direction: 160°SSE
Pressure: 29.98"   Gusts: NA
Location:  46.53°N, 90.1°W
Report Text: KIWD 281615Z AUTO 16006KT 6SM FEW070 M03/M05 A2998 RMK AO1
Loading
Personal Weather Stations






























Interactive Weather Map New forecast layout! Learn more

10-Day Weather Forecast

Advertisements
Track Severe Weather on mobile